createdAt,value
2022-11-21T00:01:25.352Z,0.00
2022-11-21T00:03:52.290Z,0.00
2022-11-21T00:06:19.780Z,0.00
2022-11-21T00:08:47.192Z,0.00
2022-11-21T00:11:14.166Z,0.00
2022-11-21T00:13:41.535Z,0.00
2022-11-21T00:16:14.922Z,0.00
2022-11-21T00:18:42.385Z,0.00
2022-11-21T00:21:16.230Z,0.00
2022-11-21T00:23:44.373Z,0.00
2022-11-21T00:26:13.054Z,0.55
2022-11-21T00:28:39.960Z,0.00
2022-11-21T00:31:07.270Z,0.00
2022-11-21T00:33:38.975Z,0.00
2022-11-21T00:36:08.564Z,0.00
2022-11-21T00:38:36.040Z,0.00
2022-11-21T00:41:02.704Z,0.00
2022-11-21T00:43:29.355Z,0.00
2022-11-21T00:45:56.024Z,0.00
2022-11-21T00:48:22.652Z,0.00
2022-11-21T00:50:50.086Z,0.00
2022-11-21T00:53:16.773Z,0.00
2022-11-21T00:55:43.473Z,0.00
2022-11-21T00:58:10.121Z,0.00
2022-11-21T01:00:36.795Z,0.00
2022-11-21T01:03:03.551Z,0.00
2022-11-21T01:05:33.152Z,0.00
2022-11-21T01:07:59.834Z,0.00
2022-11-21T01:10:26.469Z,0.10
2022-11-21T01:12:53.157Z,0.00
2022-11-21T01:15:19.854Z,0.00
2022-11-21T01:17:46.528Z,0.00
2022-11-21T01:20:13.550Z,0.00
2022-11-21T01:22:40.228Z,0.00
2022-11-21T01:25:07.502Z,0.63
2022-11-21T01:27:34.241Z,0.00
2022-11-21T01:30:00.928Z,0.00
2022-11-21T01:32:27.583Z,0.08
2022-11-21T01:34:54.236Z,0.20
2022-11-21T01:37:20.874Z,0.00
2022-11-21T01:39:47.587Z,0.00
2022-11-21T01:42:14.247Z,0.05
2022-11-21T01:44:54.500Z,0.00
2022-11-21T01:47:22.672Z,0.10
2022-11-21T01:49:50.431Z,0.65
2022-11-21T01:52:17.059Z,0.00
2022-11-21T01:55:01.124Z,0.03
2022-11-21T01:57:46.279Z,0.00
2022-11-21T02:00:25.224Z,0.63
2022-11-21T02:02:56.816Z,1.65
2022-11-21T02:05:27.974Z,0.00
2022-11-21T02:07:58.642Z,0.00
2022-11-21T02:10:25.948Z,2.92
2022-11-21T02:12:55.351Z,0.00
2022-11-21T02:15:27.216Z,0.00
2022-11-21T02:17:54.228Z,0.00
2022-11-21T02:20:29.221Z,0.05
2022-11-21T02:23:13.002Z,0.20
2022-11-21T02:25:43.175Z,0.00
2022-11-21T02:28:16.864Z,0.00
2022-11-21T02:30:44.279Z,0.00
2022-11-21T02:33:12.537Z,0.20
2022-11-21T02:35:39.807Z,0.00
2022-11-21T02:38:28.024Z,0.00
2022-11-21T02:41:16.849Z,0.52
2022-11-21T02:43:50.795Z,0.00
2022-11-21T02:46:17.461Z,0.00
2022-11-21T02:48:44.476Z,0.00
2022-11-21T02:51:11.111Z,0.00
2022-11-21T02:53:37.735Z,0.10
2022-11-21T02:56:04.699Z,0.00
2022-11-21T02:58:31.657Z,0.43
2022-11-21T03:00:58.441Z,0.35
2022-11-21T03:03:25.131Z,0.00
2022-11-21T03:05:52.045Z,0.00
2022-11-21T03:08:18.704Z,0.00
2022-11-21T03:10:45.372Z,0.00
2022-11-21T03:13:11.994Z,0.00
2022-11-21T03:15:38.629Z,0.47
2022-11-21T03:18:05.485Z,0.05
2022-11-21T03:20:34.824Z,0.20
2022-11-21T03:23:02.250Z,0.00
2022-11-21T03:25:29.169Z,0.10
2022-11-21T03:27:55.934Z,0.00
2022-11-21T03:30:25.189Z,0.10
2022-11-21T03:32:56.136Z,0.00
2022-11-21T03:35:23.489Z,0.15
2022-11-21T03:37:50.149Z,0.45
2022-11-21T03:40:16.773Z,0.00
2022-11-21T03:42:43.555Z,0.13
2022-11-21T03:45:10.531Z,0.75
2022-11-21T03:47:37.196Z,0.00
2022-11-21T03:50:04.143Z,0.00
2022-11-21T03:52:30.702Z,0.00
2022-11-21T03:54:57.334Z,0.00
2022-11-21T03:57:23.959Z,0.40
2022-11-21T03:59:50.559Z,0.00
2022-11-21T04:02:17.139Z,0.00
2022-11-21T04:04:43.712Z,0.03
2022-11-21T04:07:10.334Z,0.00
2022-11-21T04:09:37.008Z,0.00
2022-11-21T04:12:07.497Z,0.00
2022-11-21T04:14:34.996Z,0.00
2022-11-21T04:17:01.860Z,0.00
2022-11-21T04:19:28.526Z,1.02
2022-11-21T04:21:55.095Z,1.25
2022-11-21T04:24:21.729Z,0.00
2022-11-21T04:26:48.343Z,0.00
2022-11-21T04:29:14.936Z,0.22
2022-11-21T04:31:41.527Z,0.00
2022-11-21T04:34:08.167Z,0.00
2022-11-21T04:36:34.788Z,1.45
2022-11-21T04:39:01.500Z,0.00
2022-11-21T04:41:28.126Z,0.00
2022-11-21T04:43:54.807Z,0.00
2022-11-21T04:46:21.413Z,0.00
2022-11-21T04:48:47.989Z,0.00
2022-11-21T04:51:14.612Z,0.00
2022-11-21T04:53:43.049Z,0.00
2022-11-21T04:56:10.649Z,0.00
2022-11-21T04:58:37.260Z,0.00
2022-11-21T05:01:09.060Z,0.00
2022-11-21T05:03:36.684Z,0.00
2022-11-21T05:06:03.680Z,0.00
2022-11-21T05:08:30.285Z,0.17
2022-11-21T05:11:15.371Z,0.00
2022-11-21T05:13:41.978Z,0.00
2022-11-21T05:16:08.590Z,0.03
2022-11-21T05:18:35.169Z,0.00
2022-11-21T05:21:03.038Z,0.00
2022-11-21T05:23:29.782Z,0.00
2022-11-21T05:25:56.515Z,0.00
2022-11-21T05:28:23.149Z,0.00
2022-11-21T05:30:49.772Z,0.00
2022-11-21T05:33:16.724Z,0.00
2022-11-21T05:35:43.866Z,0.00
2022-11-21T05:38:11.132Z,0.00
2022-11-21T05:40:37.854Z,0.00
2022-11-21T05:43:22.970Z,0.00
2022-11-21T05:45:50.648Z,0.00
2022-11-21T05:48:18.310Z,0.00
2022-11-21T05:50:49.609Z,0.00
2022-11-21T05:53:16.611Z,0.10
2022-11-21T05:55:43.816Z,0.10
2022-11-21T05:58:10.952Z,0.57
2022-11-21T06:00:38.365Z,0.00
2022-11-21T06:03:24.901Z,0.00
2022-11-21T06:05:51.663Z,0.10
2022-11-21T06:08:18.811Z,0.38
2022-11-21T06:10:45.531Z,0.00
2022-11-21T06:13:24.045Z,0.00
2022-11-21T06:16:02.259Z,0.00
2022-11-21T06:18:33.595Z,0.00
2022-11-21T06:21:13.937Z,0.00
2022-11-21T06:23:40.686Z,0.00
2022-11-21T06:26:12.354Z,0.00
2022-11-21T06:28:41.179Z,1.55
2022-11-21T06:31:12.938Z,0.00
2022-11-21T06:33:41.082Z,0.00
2022-11-21T06:36:15.403Z,1.08
2022-11-21T06:38:43.842Z,0.00
2022-11-21T06:41:23.027Z,0.20
2022-11-21T06:43:49.695Z,0.00
2022-11-21T06:46:17.130Z,0.00
2022-11-21T06:48:44.404Z,0.00
2022-11-21T06:51:23.556Z,0.00
2022-11-21T06:53:56.549Z,0.00
2022-11-21T06:56:31.859Z,0.00
2022-11-21T06:58:59.074Z,0.00
2022-11-21T07:01:26.473Z,0.00
2022-11-21T07:03:53.780Z,0.00
2022-11-21T07:06:20.747Z,0.10
2022-11-21T07:08:52.454Z,0.00
2022-11-21T07:11:26.696Z,0.00
2022-11-21T07:13:53.678Z,0.00
2022-11-21T07:16:20.376Z,0.00
2022-11-21T07:18:47.081Z,0.00
2022-11-21T07:21:13.808Z,0.00
2022-11-21T07:23:40.547Z,0.00
2022-11-21T07:26:09.890Z,0.00
2022-11-21T07:28:36.673Z,0.40
2022-11-21T07:31:08.455Z,0.80
2022-11-21T07:33:39.621Z,0.00
2022-11-21T07:36:07.091Z,0.00
2022-11-21T07:38:33.683Z,0.00
2022-11-21T07:41:00.285Z,0.00
2022-11-21T07:43:26.936Z,0.20
2022-11-21T07:45:53.543Z,0.22
2022-11-21T07:48:20.240Z,0.00
2022-11-21T07:50:46.866Z,0.00
2022-11-21T07:53:13.640Z,0.00
2022-11-21T07:55:41.044Z,0.30
2022-11-21T07:58:11.220Z,0.00
2022-11-21T08:00:40.432Z,0.00
2022-11-21T08:03:07.429Z,0.00
2022-11-21T08:05:39.462Z,0.00
2022-11-21T08:08:07.000Z,0.00
2022-11-21T08:10:36.904Z,0.00
2022-11-21T08:13:03.526Z,0.38
2022-11-21T08:15:30.224Z,0.05
2022-11-21T08:17:56.810Z,0.00
2022-11-21T08:20:23.455Z,0.00
2022-11-21T08:22:50.412Z,0.00
2022-11-21T08:25:17.072Z,0.00
2022-11-21T08:27:43.759Z,0.00
2022-11-21T08:30:12.492Z,0.00
2022-11-21T08:32:39.083Z,0.00
2022-11-21T08:35:06.436Z,0.00
2022-11-21T08:37:33.061Z,0.00
2022-11-21T08:40:00.693Z,0.00
2022-11-21T08:42:27.743Z,0.00
2022-11-21T08:44:54.403Z,0.00
2022-11-21T08:47:21.245Z,0.00
2022-11-21T08:49:48.899Z,0.00
2022-11-21T08:52:17.300Z,0.00
2022-11-21T08:54:44.989Z,0.00
2022-11-21T08:57:12.293Z,0.00
2022-11-21T08:59:39.023Z,0.00
2022-11-21T09:02:05.892Z,0.00
2022-11-21T09:04:32.694Z,0.00
2022-11-21T09:06:59.702Z,0.00
2022-11-21T09:09:26.410Z,0.00
2022-11-21T09:11:53.163Z,0.00
2022-11-21T09:14:38.311Z,0.00
2022-11-21T09:17:23.629Z,0.00
2022-11-21T09:19:50.404Z,0.00
2022-11-21T09:22:17.252Z,0.00
2022-11-21T09:24:43.838Z,0.20
2022-11-21T09:27:10.436Z,0.00
2022-11-21T09:29:37.024Z,0.00
2022-11-21T09:32:03.804Z,0.38
2022-11-21T09:34:31.695Z,0.00
2022-11-21T09:36:58.594Z,0.00
2022-11-21T09:39:25.687Z,0.00
2022-11-21T09:42:18.577Z,0.00
2022-11-21T09:45:20.394Z,0.00
2022-11-21T09:47:51.032Z,0.00
2022-11-21T09:50:36.122Z,0.00
2022-11-21T09:53:25.144Z,0.00
2022-11-21T09:56:20.007Z,0.00
2022-11-21T09:59:12.562Z,0.00
2022-11-21T10:01:39.280Z,0.00
2022-11-21T10:04:06.028Z,0.00
2022-11-21T10:06:48.510Z,0.00
2022-11-21T10:09:30.090Z,0.00
2022-11-21T10:12:31.669Z,0.00
2022-11-21T10:15:33.464Z,0.00
2022-11-21T10:18:11.721Z,0.00
2022-11-21T10:20:48.590Z,0.00
2022-11-21T10:23:52.687Z,0.00
2022-11-21T10:26:57.548Z,0.00
2022-11-21T10:29:30.138Z,0.00
2022-11-21T10:32:03.782Z,0.00
2022-11-21T10:34:37.392Z,0.00
2022-11-21T10:37:16.542Z,0.00
2022-11-21T10:39:50.967Z,0.00
2022-11-21T10:42:40.316Z,0.00
2022-11-21T10:45:22.929Z,0.00
2022-11-21T10:47:53.803Z,0.00
2022-11-21T10:50:57.930Z,0.00
2022-11-21T10:53:45.121Z,0.00
2022-11-21T10:56:21.742Z,0.03
2022-11-21T10:58:57.509Z,0.00
2022-11-21T11:04:27.426Z,0.00
2022-11-21T11:06:55.834Z,0.00
2022-11-21T11:09:30.086Z,0.00
2022-11-21T11:12:47.153Z,0.00
2022-11-21T11:15:25.157Z,0.00
2022-11-21T11:18:08.823Z,0.00
2022-11-21T11:20:43.721Z,0.00
2022-11-21T11:23:27.399Z,0.00
2022-11-21T11:26:00.356Z,0.00
2022-11-21T11:28:35.483Z,0.00
2022-11-21T11:31:02.982Z,0.00
2022-11-21T11:33:29.592Z,0.00
2022-11-21T11:36:13.183Z,0.00
2022-11-21T11:38:48.671Z,0.00
2022-11-21T11:42:12.444Z,0.00
2022-11-21T11:45:33.520Z,0.00
2022-11-21T11:48:10.530Z,0.00
2022-11-21T11:50:48.739Z,0.00
2022-11-21T11:53:43.832Z,0.00
2022-11-21T11:56:33.011Z,0.00
2022-11-21T11:59:24.056Z,0.00
2022-11-21T12:02:05.364Z,0.00
2022-11-21T12:04:47.103Z,0.00
2022-11-21T12:10:26.549Z,0.00
2022-11-21T12:13:04.724Z,0.00
2022-11-21T12:15:49.910Z,0.05
2022-11-21T12:18:19.676Z,0.00
2022-11-21T12:20:52.355Z,0.00
2022-11-21T12:23:19.924Z,0.00
2022-11-21T12:26:12.015Z,0.00
2022-11-21T12:29:06.029Z,0.00
2022-11-21T12:31:38.580Z,0.00
2022-11-21T12:34:36.478Z,0.00
2022-11-21T12:37:06.025Z,0.00
2022-11-21T12:40:09.888Z,0.00
2022-11-21T12:43:00.011Z,0.00
2022-11-21T12:45:38.931Z,0.00
2022-11-21T12:48:54.925Z,0.00
2022-11-21T12:51:39.785Z,0.00
2022-11-21T12:54:30.620Z,0.00
2022-11-21T12:57:11.691Z,0.00
2022-11-21T13:00:07.490Z,0.00
2022-11-21T13:03:18.198Z,0.00
2022-11-21T13:05:50.942Z,0.00
2022-11-21T13:08:27.254Z,0.00
2022-11-21T13:11:52.191Z,0.00
2022-11-21T13:14:36.227Z,0.00
2022-11-21T13:17:34.562Z,0.00
2022-11-21T13:20:29.299Z,0.00
2022-11-21T13:23:03.590Z,0.00
2022-11-21T13:25:30.220Z,0.00
2022-11-21T13:28:29.416Z,0.00
2022-11-21T13:30:57.322Z,0.00
2022-11-21T13:33:36.201Z,0.00
2022-11-21T13:36:11.842Z,0.00
2022-11-21T13:39:03.081Z,0.00
2022-11-21T13:41:54.745Z,0.00
2022-11-21T13:44:33.961Z,0.00
2022-11-21T13:47:10.584Z,0.00
2022-11-21T13:49:43.489Z,0.00
2022-11-21T13:52:18.912Z,0.00
2022-11-21T13:55:30.416Z,0.00
2022-11-21T13:58:27.538Z,0.00
2022-11-21T14:01:34.738Z,0.10
2022-11-21T14:06:52.959Z,0.00
2022-11-21T14:09:36.265Z,0.00
2022-11-21T14:12:08.389Z,0.00
2022-11-21T14:14:47.314Z,0.00
2022-11-21T14:17:25.994Z,0.00
2022-11-21T14:19:57.088Z,0.00
2022-11-21T14:22:53.157Z,0.00
2022-11-21T14:25:27.560Z,0.00
2022-11-21T14:27:56.300Z,0.00
2022-11-21T14:30:44.079Z,0.00
2022-11-21T14:33:47.823Z,0.00
2022-11-21T14:36:25.518Z,0.00
2022-11-21T14:39:35.849Z,0.00
2022-11-21T14:42:01.881Z,0.00
2022-11-21T14:44:29.002Z,0.00
2022-11-21T14:47:23.438Z,0.00
2022-11-21T14:49:59.607Z,0.00
2022-11-21T14:52:33.035Z,0.00
2022-11-21T14:57:52.634Z,0.00
2022-11-21T15:03:23.855Z,0.00
2022-11-21T15:06:06.995Z,0.00
2022-11-21T15:09:18.343Z,0.00
2022-11-21T15:12:05.507Z,0.00
2022-11-21T15:15:06.559Z,0.00
2022-11-21T15:17:33.881Z,0.00
2022-11-21T15:20:12.654Z,0.00
2022-11-21T15:22:41.771Z,0.00
2022-11-21T15:25:12.803Z,0.00
2022-11-21T15:27:39.400Z,0.00
2022-11-21T15:30:12.423Z,0.00
2022-11-21T15:33:07.742Z,0.00
2022-11-21T15:35:42.550Z,0.00
2022-11-21T15:38:44.238Z,0.00
2022-11-21T15:41:29.651Z,0.00
2022-11-21T15:44:02.460Z,0.00
2022-11-21T15:46:30.160Z,0.00
2022-11-21T15:52:07.352Z,0.00
2022-11-21T15:54:35.846Z,0.00
2022-11-21T15:57:02.433Z,0.00
2022-11-21T15:57:14.047Z,0.00
2022-11-21T15:59:29.250Z,0.00
2022-11-21T16:01:55.999Z,0.00
2022-11-21T16:04:25.850Z,0.00
2022-11-21T16:06:55.759Z,0.00
2022-11-21T16:09:22.644Z,0.00
2022-11-21T16:11:49.640Z,0.00
2022-11-21T16:14:18.340Z,0.00
2022-11-21T16:16:47.564Z,0.00
2022-11-21T16:19:15.577Z,0.00
2022-11-21T16:21:42.560Z,0.00
2022-11-21T16:24:09.351Z,0.00
2022-11-21T16:26:35.962Z,0.00
2022-11-21T16:29:06.176Z,0.00
2022-11-21T16:31:33.550Z,0.00
2022-11-21T16:34:00.729Z,0.00
2022-11-21T16:36:30.255Z,0.00
2022-11-21T16:39:01.942Z,0.00
2022-11-21T16:41:32.186Z,0.00
2022-11-21T16:43:58.925Z,0.00
2022-11-21T16:46:25.996Z,0.00
2022-11-21T16:49:01.609Z,0.00
2022-11-21T16:51:29.535Z,0.00
2022-11-21T16:54:00.475Z,0.00
2022-11-21T16:56:29.813Z,0.00
2022-11-21T16:58:56.443Z,0.00
2022-11-21T17:01:26.170Z,0.00
2022-11-21T17:03:53.260Z,0.00
2022-11-21T17:06:27.026Z,0.00
2022-11-21T17:08:54.166Z,0.00
2022-11-21T17:11:28.927Z,0.98
2022-11-21T17:13:58.857Z,0.20
2022-11-21T17:16:25.782Z,0.00
2022-11-21T17:18:57.644Z,0.00
2022-11-21T17:21:25.333Z,0.00
2022-11-21T17:23:52.699Z,0.00
2022-11-21T17:26:23.052Z,0.00
2022-11-21T17:28:58.715Z,0.00
2022-11-21T17:31:26.314Z,0.00
2022-11-21T17:33:54.638Z,0.10
2022-11-21T17:36:23.740Z,0.00
2022-11-21T17:38:51.621Z,0.00
2022-11-21T17:41:20.319Z,0.00
2022-11-21T17:43:48.346Z,0.00
2022-11-21T17:46:18.083Z,0.00
2022-11-21T17:48:54.244Z,0.00
2022-11-21T17:51:28.963Z,0.00
2022-11-21T17:53:56.345Z,0.00
2022-11-21T17:56:26.217Z,0.00
2022-11-21T17:58:52.899Z,0.00
2022-11-21T18:01:20.578Z,0.00
2022-11-21T18:03:53.345Z,0.00
2022-11-21T18:06:19.972Z,0.00
2022-11-21T18:08:48.492Z,0.00
2022-11-21T18:11:21.048Z,0.00
2022-11-21T18:13:49.098Z,0.00
2022-11-21T18:16:20.199Z,0.00
2022-11-21T18:18:46.861Z,0.00
2022-11-21T18:21:17.650Z,0.00
2022-11-21T18:23:44.394Z,0.00
2022-11-21T18:26:22.839Z,0.00
2022-11-21T18:29:07.288Z,0.00
2022-11-21T18:31:38.790Z,0.00
2022-11-21T18:34:06.675Z,0.00
2022-11-21T18:36:33.482Z,0.00
2022-11-21T18:39:07.193Z,0.00
2022-11-21T18:41:38.873Z,0.00
2022-11-21T18:44:06.881Z,0.00
2022-11-21T18:46:36.250Z,0.00
2022-11-21T18:49:06.358Z,0.00
2022-11-21T18:51:35.723Z,0.00
2022-11-21T18:54:07.908Z,0.00
2022-11-21T18:56:37.278Z,0.00
2022-11-21T18:59:06.247Z,0.00
2022-11-21T19:01:34.296Z,0.00
2022-11-21T19:04:01.090Z,0.00
2022-11-21T19:06:27.906Z,1.08
2022-11-21T19:08:57.210Z,0.10
2022-11-21T19:11:27.818Z,1.23
2022-11-21T19:13:56.766Z,0.50
2022-11-21T19:16:26.427Z,0.30
2022-11-21T19:21:43.273Z,0.95
2022-11-21T19:24:16.345Z,0.55
2022-11-21T19:26:43.155Z,1.42
2022-11-21T19:29:10.501Z,1.20
2022-11-21T19:31:44.256Z,1.17
2022-11-21T19:34:16.285Z,2.10
2022-11-21T19:36:43.831Z,1.70
2022-11-21T19:39:11.214Z,2.15
2022-11-21T19:41:37.848Z,1.73
2022-11-21T19:44:04.735Z,2.22
2022-11-21T19:46:35.326Z,2.55
2022-11-21T19:49:02.389Z,2.05
2022-11-21T19:51:40.195Z,2.03
2022-11-21T19:54:10.336Z,2.63
2022-11-21T19:56:37.232Z,2.80
2022-11-21T19:59:04.586Z,2.53
2022-11-21T20:01:33.817Z,2.25
2022-11-21T20:04:03.365Z,2.50
2022-11-21T20:06:41.454Z,3.50
2022-11-21T20:09:10.957Z,3.70
2022-11-21T20:11:40.873Z,2.20
2022-11-21T20:14:08.132Z,2.15
2022-11-21T20:16:38.647Z,3.05
2022-11-21T20:19:09.807Z,2.47
2022-11-21T20:21:38.308Z,2.53
2022-11-21T20:24:06.423Z,2.92
2022-11-21T20:26:34.007Z,3.22
2022-11-21T20:29:01.050Z,2.75
2022-11-21T20:31:30.985Z,3.88
2022-11-21T20:34:04.395Z,2.05
2022-11-21T20:36:33.935Z,2.50
2022-11-21T20:39:05.504Z,3.15
2022-11-21T20:41:35.543Z,2.95
2022-11-21T20:44:59.728Z,3.08
2022-11-21T20:46:54.599Z,3.10
2022-11-21T20:49:21.595Z,2.75
2022-11-21T20:54:36.113Z,2.67
2022-11-21T20:57:02.751Z,2.80
2022-11-21T20:59:29.786Z,3.30
2022-11-21T21:01:56.866Z,2.60
2022-11-21T21:04:23.571Z,2.65
2022-11-21T21:06:50.193Z,2.70
2022-11-21T21:09:16.808Z,2.38
2022-11-21T21:11:52.444Z,3.22
2022-11-21T21:14:20.516Z,2.88
2022-11-21T21:16:47.138Z,3.10
2022-11-21T21:19:13.789Z,3.33
2022-11-21T21:21:41.446Z,3.47
2022-11-21T21:24:10.765Z,3.75
2022-11-21T21:26:44.170Z,4.07
2022-11-21T21:29:18.772Z,3.05
2022-11-21T21:31:51.201Z,3.85
2022-11-21T21:34:21.092Z,2.60
2022-11-21T21:36:48.213Z,4.45
2022-11-21T21:39:14.932Z,2.80
2022-11-21T21:41:44.475Z,3.00
2022-11-21T21:44:12.091Z,3.30
2022-11-21T21:46:38.691Z,2.92
2022-11-21T21:49:05.320Z,3.00
2022-11-21T21:51:32.270Z,2.90
2022-11-21T21:53:59.498Z,3.05
2022-11-21T21:56:28.458Z,3.50
2022-11-21T21:58:57.803Z,2.60
2022-11-21T22:01:28.393Z,3.08
2022-11-21T22:03:58.714Z,2.75
2022-11-21T22:06:25.755Z,3.58
2022-11-21T22:08:54.283Z,3.80
2022-11-21T22:11:23.306Z,2.92
2022-11-21T22:13:55.746Z,2.85
2022-11-21T22:16:22.736Z,3.17
2022-11-21T22:18:49.528Z,3.00
2022-11-21T22:21:24.718Z,3.05
2022-11-21T22:24:22.976Z,3.38
2022-11-21T22:26:38.543Z,3.47
2022-11-21T22:29:05.599Z,2.45
2022-11-21T22:31:32.848Z,2.85
2022-11-21T22:34:00.788Z,3.95
2022-11-21T22:36:27.548Z,3.05
2022-11-21T22:38:55.573Z,3.50
2022-11-21T22:41:25.505Z,3.75
2022-11-21T22:43:58.551Z,2.80
2022-11-21T22:46:29.990Z,3.20
2022-11-21T22:48:57.030Z,3.90
2022-11-21T22:51:27.338Z,2.92
2022-11-21T22:53:53.949Z,2.90
2022-11-21T22:56:22.804Z,2.60
2022-11-21T22:58:50.181Z,2.25
2022-11-21T23:01:26.116Z,3.30
2022-11-21T23:03:53.393Z,2.67
2022-11-21T23:06:26.065Z,2.45
2022-11-21T23:08:55.296Z,3.70
2022-11-21T23:11:25.937Z,2.78
2022-11-21T23:13:53.960Z,2.50
2022-11-21T23:16:21.167Z,2.42
2022-11-21T23:18:48.871Z,2.85
2022-11-21T23:21:15.505Z,3.33
2022-11-21T23:23:43.828Z,2.13
2022-11-21T23:26:10.497Z,2.10
2022-11-21T23:28:37.149Z,2.47
2022-11-21T23:31:03.930Z,1.92
2022-11-21T23:33:30.571Z,2.10
2022-11-21T23:35:57.195Z,2.30
2022-11-21T23:38:23.802Z,2.28
2022-11-21T23:40:50.496Z,3.67
2022-11-21T23:43:18.550Z,2.20
2022-11-21T23:45:53.554Z,2.58
2022-11-21T23:48:21.900Z,1.87
2022-11-21T23:50:50.892Z,2.33
2022-11-21T23:53:18.953Z,2.20
2022-11-21T23:55:45.824Z,2.53
2022-11-21T23:58:13.526Z,1.85
